Terminal Aerodrome Forecast
Issued by NWS Mt. Holly, NJ

Current Version | Previous Version | Text Only | Print | Product List | Glossary On
Versions: 1 2 3 4 5 6 7 8 9 10 11 12 13 14 15 16
326
FTUS41 KPHI 241127
TAFACY
TAF
KACY 241127Z 2412/2512 35004KT P6SM SKC
     FM241400 04007KT P6SM SKC
     FM241700 08007KT P6SM SKC
     FM242200 VRB05KT P6SM SKC=

USA.gov is the U.S. government's official web portal to all federal, state and local government web resources and services.